Time;durP1;ratioP1;P1;durP2;ratioP2;P2;SDS_P1;SDS_P2;PMS_P1;PMS_P2;Temp;Humidity;BMP_temperature;BMP_pressure;BME280_temperature;BME280_humidity;BME280_pressure;Samples;Min_cycle;Max_cycle;Signal;HPM_P1;HPM_P2
2021/06/16 13:27:12;;;;;;;6.70;6.10;;;;;;;;;;5135821;27;20483;-63
2021/06/16 13:30:01;;;;;;;9.70;5.67;;;;;;;;;;5139591;22;20186;-65
2021/06/16 13:32:47;;;;;;;6.27;5.67;;;;;;;;;;5106683;28;20202;-65
2021/06/16 13:35:33;;;;;;;7.13;6.40;;;;;;;;;;5107041;28;20257;-65
2021/06/16 13:38:18;;;;;;;6.03;5.50;;;;;;;;;;5107143;28;20203;-65
2021/06/16 13:41:04;;;;;;;6.53;5.90;;;;;;;;;;5107490;28;20619;-66
2021/06/16 13:43:50;;;;;;;7.20;6.03;;;;;;;;;;5094314;28;20302;-65
2021/06/16 13:46:35;;;;;;;6.28;5.78;;;;;;;;;;5097368;28;20407;-64
2021/06/16 13:49:20;;;;;;;7.33;5.80;;;;;;;;;;5086953;28;20211;-64
2021/06/16 13:52:06;;;;;;;7.33;6.63;;;;;;;;;;5087491;28;20238;-65
2021/06/16 13:54:51;;;;;;;8.63;5.80;;;;;;;;;;5085434;28;20211;-64
2021/06/16 13:57:36;;;;;;;6.17;5.73;;;;;;;;;;5087544;28;20282;-65
2021/06/16 14:00:22;;;;;;;6.40;5.67;;;;;;;;;;5087019;28;20231;-65
2021/06/16 14:03:08;;;;;;;6.50;5.80;;;;;;;;;;5089220;28;20204;-65
2021/06/16 14:05:53;;;;;;;6.97;6.03;;;;;;;;;;5089159;28;20418;-64
2021/06/16 14:08:38;;;;;;;7.33;6.53;;;;;;;;;;5090822;28;20224;-65
2021/06/16 14:11:23;;;;;;;7.07;6.47;;;;;;;;;;5087100;28;20373;-65
2021/06/16 14:14:10;;;;;;;6.43;5.77;;;;;;;;;;5088826;28;20204;-65
2021/06/16 14:16:56;;;;;;;6.93;6.07;;;;;;;;;;5086817;28;20239;-65
2021/06/16 14:19:41;;;;;;;6.82;6.22;;;;;;;;;;5097402;28;20419;-65
2021/06/16 14:22:26;;;;;;;6.43;5.83;;;;;;;;;;5090954;28;20687;-65
2021/06/16 14:25:12;;;;;;;7.70;6.77;;;;;;;;;;5103310;28;20264;-65
2021/06/16 14:27:57;;;;;;;8.90;6.53;;;;;;;;;;5092316;28;20246;-65
2021/06/16 14:30:42;;;;;;;9.93;6.50;;;;;;;;;;5097479;28;20601;-65
2021/06/16 14:33:28;;;;;;;7.43;6.73;;;;;;;;;;5086279;28;20203;-67
2021/06/16 14:36:13;;;;;;;7.70;7.00;;;;;;;;;;5086598;28;20200;-66
2021/06/16 14:38:58;;;;;;;7.00;6.40;;;;;;;;;;5073183;28;20615;-67
2021/06/16 14:41:43;;;;;;;8.48;6.93;;;;;;;;;;5072923;28;20418;-67
2021/06/16 14:44:28;;;;;;;7.77;6.90;;;;;;;;;;5085602;28;20204;-67
2021/06/16 14:47:13;;;;;;;8.10;6.93;;;;;;;;;;5093319;28;20593;-65
2021/06/16 14:49:59;;;;;;;8.20;6.53;;;;;;;;;;5093240;28;20235;-64
2021/06/16 14:52:44;;;;;;;8.03;6.90;;;;;;;;;;5092498;28;20581;-65
2021/06/16 14:55:29;;;;;;;10.03;7.20;;;;;;;;;;5085759;28;20201;-65
2021/06/16 14:58:14;;;;;;;7.80;6.70;;;;;;;;;;5072706;28;20323;-65
2021/06/16 15:00:58;;;;;;;12.20;7.27;;;;;;;;;;5072564;28;20224;-65
2021/06/16 15:03:43;;;;;;;9.30;6.60;;;;;;;;;;5071856;28;20205;-64
2021/06/16 15:06:30;;;;;;;8.00;7.20;;;;;;;;;;5072521;28;20216;-65
2021/06/16 15:09:15;;;;;;;10.23;6.90;;;;;;;;;;5072578;28;20232;-65
2021/06/16 15:12:00;;;;;;;9.52;7.47;;;;;;;;;;5076194;28;20554;-64
2021/06/16 15:14:45;;;;;;;9.70;7.33;;;;;;;;;;5077725;28;20204;-64
2021/06/16 15:17:29;;;;;;;8.30;7.50;;;;;;;;;;5072505;28;20885;-65
2021/06/16 15:20:14;;;;;;;8.03;6.80;;;;;;;;;;5072058;28;20318;-64
2021/06/16 15:23:01;;;;;;;9.07;7.00;;;;;;;;;;5071714;28;20208;-64
2021/06/16 15:25:46;;;;;;;9.10;6.97;;;;;;;;;;5071666;28;20640;-64
2021/06/16 15:28:30;;;;;;;9.67;6.93;;;;;;;;;;5072347;28;20712;-64
2021/06/16 15:31:16;;;;;;;8.87;7.70;;;;;;;;;;5072124;28;20426;-64
2021/06/16 15:34:03;;;;;;;8.38;7.40;;;;;;;;;;5070424;28;20793;-64
2021/06/16 15:36:47;;;;;;;8.47;7.73;;;;;;;;;;5072259;28;20268;-64
2021/06/16 15:39:34;;;;;;;9.67;8.13;;;;;;;;;;5071623;28;20208;-64
2021/06/16 15:42:22;;;;;;;8.50;7.70;;;;;;;;;;5072008;28;20197;-63
2021/06/16 15:45:07;;;;;;;9.07;7.20;;;;;;;;;;5071979;28;20267;-64
2021/06/16 15:47:52;;;;;;;8.33;7.53;;;;;;;;;;5071943;28;20251;-64
2021/06/16 15:50:37;;;;;;;7.93;7.20;;;;;;;;;;5070736;28;20224;-64
2021/06/16 15:53:22;;;;;;;8.73;7.17;;;;;;;;;;5070695;28;20259;-64
2021/06/16 15:56:08;;;;;;;8.60;7.57;;;;;;;;;;5071750;28;20265;-64
2021/06/16 15:58:53;;;;;;;8.10;7.40;;;;;;;;;;5071739;28;20209;-64
2021/06/16 16:01:38;;;;;;;8.93;8.13;;;;;;;;;;5071477;28;20373;-64
2021/06/16 16:04:23;;;;;;;8.43;7.60;;;;;;;;;;5051876;28;20685;-64
2021/06/16 16:07:08;;;;;;;9.73;7.73;;;;;;;;;;5069729;28;20222;-64
2021/06/16 16:09:53;;;;;;;9.43;7.60;;;;;;;;;;5071116;28;20242;-64
2021/06/16 16:12:39;;;;;;;9.13;7.47;;;;;;;;;;5070730;28;20208;-64
2021/06/16 16:15:25;;;;;;;8.00;7.20;;;;;;;;;;5070956;28;20200;-64
2021/06/16 16:18:10;;;;;;;8.23;7.47;;;;;;;;;;5071507;28;20350;-64
2021/06/16 16:20:56;;;;;;;9.20;7.77;;;;;;;;;;5070907;28;20298;-64
2021/06/16 16:23:41;;;;;;;10.23;7.60;;;;;;;;;;5070117;28;20585;-64
2021/06/16 16:26:26;;;;;;;8.18;7.38;;;;;;;;;;5070014;28;20937;-64
2021/06/16 16:29:13;;;;;;;7.60;7.00;;;;;;;;;;5070483;28;20880;-64
2021/06/16 16:31:58;;;;;;;7.90;7.13;;;;;;;;;;5070812;28;20827;-64
2021/06/16 16:34:44;;;;;;;9.37;7.47;;;;;;;;;;5070056;28;20295;-64
2021/06/16 16:37:29;;;;;;;10.67;7.57;;;;;;;;;;5070672;28;20205;-64
2021/06/16 16:40:15;;;;;;;8.80;7.07;;;;;;;;;;5070450;28;20271;-64
2021/06/16 16:43:00;;;;;;;8.57;7.63;;;;;;;;;;5068556;28;20208;-64
2021/06/16 16:45:46;;;;;;;10.17;7.53;;;;;;;;;;5070121;28;20623;-64
2021/06/16 16:48:31;;;;;;;8.27;7.33;;;;;;;;;;5070374;28;20207;-64
2021/06/16 16:51:16;;;;;;;7.60;6.97;;;;;;;;;;5070566;28;20740;-64
2021/06/16 16:54:01;;;;;;;8.77;7.83;;;;;;;;;;5069851;28;20278;-64
2021/06/16 16:56:46;;;;;;;11.33;7.70;;;;;;;;;;5070394;28;20677;-64
2021/06/16 16:59:31;;;;;;;9.67;7.50;;;;;;;;;;5069700;28;20251;-64
2021/06/16 17:02:17;;;;;;;8.67;7.90;;;;;;;;;;5070540;28;20201;-63
2021/06/16 17:05:02;;;;;;;7.90;7.20;;;;;;;;;;5070339;28;20235;-64
2021/06/16 17:07:47;;;;;;;9.73;7.87;;;;;;;;;;5050126;28;20260;-64
2021/06/16 17:10:32;;;;;;;8.43;7.70;;;;;;;;;;5059678;28;20248;-64
2021/06/16 17:13:17;;;;;;;8.03;7.27;;;;;;;;;;5069631;28;20239;-64
2021/06/16 17:16:03;;;;;;;8.83;7.17;;;;;;;;;;5070377;28;20224;-64
2021/06/16 17:18:49;;;;;;;7.90;7.17;;;;;;;;;;5070687;28;20196;-63
2021/06/16 17:21:34;;;;;;;7.80;7.10;;;;;;;;;;5070406;28;20223;-63
2021/06/16 17:24:19;;;;;;;8.40;7.60;;;;;;;;;;5069477;28;20308;-64
2021/06/16 17:27:04;;;;;;;8.77;7.90;;;;;;;;;;5070124;28;20270;-64
2021/06/16 17:29:49;;;;;;;9.17;8.27;;;;;;;;;;5049975;28;20579;-64
2021/06/16 17:32:34;;;;;;;9.60;7.13;;;;;;;;;;5067734;28;20212;-63
2021/06/16 17:35:20;;;;;;;9.00;7.40;;;;;;;;;;5070032;28;20727;-64
2021/06/16 17:38:05;;;;;;;8.47;7.63;;;;;;;;;;5069971;28;20208;-64
2021/06/16 17:40:50;;;;;;;10.27;8.40;;;;;;;;;;5069932;28;20239;-63
2021/06/16 17:43:35;;;;;;;8.90;8.10;;;;;;;;;;5069210;28;20254;-63
2021/06/16 17:46:20;;;;;;;9.00;8.20;;;;;;;;;;5069529;28;20587;-63
2021/06/16 17:49:05;;;;;;;9.00;8.20;;;;;;;;;;5069799;28;20262;-63
2021/06/16 17:51:51;;;;;;;9.07;7.83;;;;;;;;;;5069879;28;20211;-63
2021/06/16 17:54:37;;;;;;;8.67;7.73;;;;;;;;;;5069371;28;20205;-63
2021/06/16 17:57:22;;;;;;;9.13;8.33;;;;;;;;;;5069972;28;20700;-63
2021/06/16 18:00:07;;;;;;;8.77;7.97;;;;;;;;;;5069541;28;20228;-63
2021/06/16 18:02:53;;;;;;;8.83;7.73;;;;;;;;;;5068956;28;20208;-63
2021/06/16 18:05:39;;;;;;;10.23;7.53;;;;;;;;;;5069808;28;20213;-63
2021/06/16 18:08:25;;;;;;;8.20;7.60;;;;;;;;;;5069575;28;20318;-63
2021/06/16 18:11:10;;;;;;;8.57;7.13;;;;;;;;;;5069914;28;20220;-65
2021/06/16 18:13:54;;;;;;;8.50;7.70;;;;;;;;;;5071927;28;20403;-65
2021/06/16 18:16:41;;;;;;;8.63;7.83;;;;;;;;;;5073280;28;20257;-63
2021/06/16 18:19:26;;;;;;;8.13;7.40;;;;;;;;;;5073887;28;20203;-63
2021/06/16 18:22:11;;;;;;;8.50;7.67;;;;;;;;;;5074010;28;20209;-63
2021/06/16 18:24:57;;;;;;;8.77;7.33;;;;;;;;;;5072598;28;20208;-64
2021/06/16 18:27:44;;;;;;;8.50;7.43;;;;;;;;;;5073033;28;20351;-64
2021/06/16 18:30:30;;;;;;;8.37;7.57;;;;;;;;;;5073128;28;20231;-64
2021/06/16 18:33:14;;;;;;;7.47;6.87;;;;;;;;;;5072128;28;20204;-64
2021/06/16 18:36:04;;;;;;;8.30;7.47;;;;;;;;;;5053243;28;20332;-65
2021/06/16 18:38:49;;;;;;;7.90;7.20;;;;;;;;;;5052782;28;20212;-64
2021/06/16 18:41:35;;;;;;;8.40;7.60;;;;;;;;;;5060029;28;20290;-64
2021/06/16 18:44:20;;;;;;;11.37;7.53;;;;;;;;;;5058782;28;20689;-64
2021/06/16 18:47:06;;;;;;;10.13;7.50;;;;;;;;;;5054323;28;20225;-64
2021/06/16 18:49:51;;;;;;;8.27;7.37;;;;;;;;;;5072328;28;20199;-64
2021/06/16 18:52:36;;;;;;;9.37;7.77;;;;;;;;;;5070951;28;20227;-64
2021/06/16 18:55:21;;;;;;;14.50;9.33;;;;;;;;;;5072913;28;20347;-64
2021/06/16 18:58:08;;;;;;;19.77;9.90;;;;;;;;;;5072582;28;20204;-64
2021/06/16 19:00:54;;;;;;;18.03;8.97;;;;;;;;;;5071677;28;20579;-64
2021/06/16 19:03:45;;;;;;;16.23;12.33;;;;;;;;;;5071318;28;20576;-64
2021/06/16 19:06:31;;;;;;;16.47;11.40;;;;;;;;;;5072242;28;20205;-64
2021/06/16 19:09:16;;;;;;;13.87;9.70;;;;;;;;;;5071156;28;20436;-64
2021/06/16 19:12:01;;;;;;;13.67;9.60;;;;;;;;;;5071970;28;20231;-64
2021/06/16 19:14:47;;;;;;;9.30;8.40;;;;;;;;;;5071284;28;20676;-64
2021/06/16 19:17:32;;;;;;;7.73;7.13;;;;;;;;;;5072327;28;20291;-64
2021/06/16 19:20:17;;;;;;;9.37;8.53;;;;;;;;;;5071770;28;20240;-64
2021/06/16 19:23:02;;;;;;;8.73;7.93;;;;;;;;;;5071790;28;20704;-65
2021/06/16 19:25:47;;;;;;;9.67;8.37;;;;;;;;;;5071613;28;20221;-64
2021/06/16 19:28:32;;;;;;;9.50;8.57;;;;;;;;;;5071836;28;20720;-64
2021/06/16 19:31:21;;;;;;;8.87;7.97;;;;;;;;;;5089991;22;20830;-64
2021/06/16 19:34:06;;;;;;;10.50;9.53;;;;;;;;;;5091294;28;20645;-64
2021/06/16 19:36:51;;;;;;;8.83;8.03;;;;;;;;;;5091809;28;20835;-67
2021/06/16 19:39:36;;;;;;;8.43;7.73;;;;;;;;;;5092061;28;20217;-65
2021/06/16 19:42:20;;;;;;;8.73;7.83;;;;;;;;;;5091766;28;20581;-65
2021/06/16 19:45:07;;;;;;;9.60;8.70;;;;;;;;;;5091713;28;20228;-66
2021/06/16 19:47:55;;;;;;;8.87;8.27;;;;;;;;;;5091674;28;20595;-66
2021/06/16 19:50:40;;;;;;;9.50;8.60;;;;;;;;;;5091758;28;20614;-65
2021/06/16 19:53:24;;;;;;;9.33;8.50;;;;;;;;;;5070549;28;20209;-65
2021/06/16 19:56:11;;;;;;;9.70;8.83;;;;;;;;;;5071910;28;20687;-65
2021/06/16 19:58:55;;;;;;;10.70;9.00;;;;;;;;;;5072187;28;20201;-66
